Terminal Aerodrome Forecast
Issued by NWS

Home | Current Version | Previous Version | Text Only | Print | Product List | Glossary On
Versions: 1 2 3 4 5 6 7 8 9 10 11 12 13 14 15 16 17
000
FTUS43 KMQT 312300
TAFCMX
TAF
KCMX 312332Z 0100/0124 35005KT P6SM SCT035
     FM010300 VRB03KT P6SM SKC
     FM011200 25004KT P6SM SCT090=

USA.gov is the U.S. government's official web portal to all federal, state and local government web resources and services.